createdAt,value
2023-03-21T00:00:41.139Z,8.43
2023-03-21T00:03:28.976Z,8.22
2023-03-21T00:06:16.772Z,8.35
2023-03-21T00:09:04.746Z,8.25
2023-03-21T00:11:52.600Z,8.36
2023-03-21T00:14:40.485Z,8.33
2023-03-21T00:17:32.937Z,8.41
2023-03-21T00:20:21.058Z,8.44
2023-03-21T00:23:08.787Z,8.35
2023-03-21T00:25:56.949Z,8.55
2023-03-21T00:28:44.661Z,8.52
2023-03-21T00:31:33.729Z,8.32
2023-03-21T00:34:31.675Z,8.41
2023-03-21T00:37:29.295Z,8.43
2023-03-21T00:40:26.694Z,8.26
2023-03-21T00:43:19.688Z,8.55
2023-03-21T00:46:07.886Z,8.52
2023-03-21T00:48:56.256Z,8.62
2023-03-21T00:51:44.728Z,8.56
2023-03-21T00:54:33.202Z,8.40
2023-03-21T00:57:29.323Z,8.48
2023-03-21T01:00:24.403Z,8.57
2023-03-21T01:03:23.899Z,8.26
2023-03-21T01:06:13.926Z,8.24
2023-03-21T01:09:01.842Z,8.37
2023-03-21T01:11:50.801Z,8.25
2023-03-21T01:14:38.530Z,8.34
2023-03-21T01:17:26.262Z,8.40
2023-03-21T01:20:13.949Z,8.25
2023-03-21T01:23:01.683Z,8.36
2023-03-21T01:25:50.987Z,8.30
2023-03-21T01:28:41.551Z,8.42
2023-03-21T01:31:29.229Z,8.24
2023-03-21T01:34:17.070Z,8.44
2023-03-21T01:37:04.889Z,8.37
2023-03-21T01:40:05.197Z,8.35
2023-03-21T01:42:53.210Z,8.20
2023-03-21T01:46:08.519Z,8.59
2023-03-21T01:49:27.855Z,8.55
2023-03-21T01:52:38.909Z,8.46
2023-03-21T01:55:48.101Z,8.38
2023-03-21T01:58:51.262Z,8.39
2023-03-21T02:02:07.540Z,8.40
2023-03-21T02:05:04.188Z,8.33
2023-03-21T02:07:53.060Z,8.32
2023-03-21T02:10:46.039Z,8.48
2023-03-21T02:13:41.183Z,8.28
2023-03-21T02:16:47.768Z,8.42
2023-03-21T02:19:53.346Z,8.20
2023-03-21T02:22:47.057Z,8.36
2023-03-21T02:25:43.943Z,8.42
2023-03-21T02:28:45.968Z,8.57
2023-03-21T02:32:16.533Z,8.43
2023-03-21T02:36:14.429Z,8.40
2023-03-21T02:39:27.147Z,8.27
2023-03-21T02:42:30.595Z,8.07
2023-03-21T02:45:21.645Z,8.26
2023-03-21T02:48:30.969Z,8.25
2023-03-21T02:51:24.268Z,8.20
2023-03-21T02:54:30.349Z,8.27
2023-03-21T02:57:27.048Z,8.21
2023-03-21T03:00:23.579Z,8.14
2023-03-21T03:03:20.950Z,8.29
2023-03-21T03:06:38.890Z,8.31
2023-03-21T03:09:57.823Z,8.33
2023-03-21T03:13:07.313Z,8.26
2023-03-21T03:16:16.988Z,8.25
2023-03-21T03:19:28.051Z,8.28
2023-03-21T03:22:24.005Z,8.21
2023-03-21T03:25:24.999Z,8.20
2023-03-21T03:28:26.775Z,8.19
2023-03-21T03:31:22.189Z,8.03
2023-03-21T03:34:21.384Z,8.03
2023-03-21T03:37:14.538Z,7.83
2023-03-21T03:40:16.987Z,7.95
2023-03-21T03:43:20.804Z,7.91
2023-03-21T03:46:19.267Z,7.70
2023-03-21T03:49:14.107Z,7.76
2023-03-21T03:52:13.114Z,7.72
2023-03-21T03:55:13.726Z,7.59
2023-03-21T03:58:10.632Z,7.46
2023-03-21T04:01:10.106Z,7.20
2023-03-21T04:04:12.204Z,7.25
2023-03-21T04:07:03.667Z,7.24
2023-03-21T04:09:54.138Z,7.18
2023-03-21T04:12:42.218Z,7.13
2023-03-21T04:15:40.732Z,6.89
2023-03-21T04:18:36.324Z,7.06
2023-03-21T04:21:24.077Z,7.06
2023-03-21T04:24:12.356Z,7.05
2023-03-21T04:27:01.299Z,6.91
2023-03-21T04:30:00.886Z,6.82
2023-03-21T04:33:08.899Z,6.86
2023-03-21T04:35:59.459Z,6.71
2023-03-21T04:38:51.677Z,6.77
2023-03-21T04:41:41.124Z,6.84
2023-03-21T04:44:28.796Z,6.87
2023-03-21T04:47:17.148Z,6.90
2023-03-21T04:50:05.348Z,6.84
2023-03-21T04:52:53.174Z,6.97
2023-03-21T04:55:43.613Z,6.96
2023-03-21T04:58:31.305Z,7.03
2023-03-21T05:01:21.001Z,7.06
2023-03-21T05:04:09.110Z,7.09
2023-03-21T05:06:57.611Z,7.13
2023-03-21T05:09:52.722Z,7.20
2023-03-21T05:12:41.531Z,7.36
2023-03-21T05:15:29.702Z,7.43
2023-03-21T05:18:25.025Z,7.70
2023-03-21T05:21:41.972Z,7.92
2023-03-21T05:24:37.594Z,8.33
2023-03-21T05:27:34.446Z,8.72
2023-03-21T05:30:25.406Z,9.27
2023-03-21T05:33:17.960Z,9.47
2023-03-21T05:36:09.106Z,9.54
2023-03-21T05:38:56.900Z,9.59
2023-03-21T05:41:44.815Z,9.66
2023-03-21T05:44:32.564Z,9.76
2023-03-21T05:47:22.443Z,9.93
2023-03-21T05:50:13.478Z,10.05
2023-03-21T05:53:05.004Z,10.32
2023-03-21T05:55:53.343Z,10.40
2023-03-21T05:58:59.321Z,10.49
2023-03-21T06:01:48.043Z,10.47
2023-03-21T06:04:37.247Z,10.62
2023-03-21T06:07:25.610Z,10.80
2023-03-21T06:10:13.663Z,11.56
2023-03-21T06:13:05.583Z,12.11
2023-03-21T06:15:54.627Z,12.41
2023-03-21T06:18:47.527Z,12.59
2023-03-21T06:21:54.528Z,12.78
2023-03-21T06:24:42.259Z,13.04
2023-03-21T06:27:30.071Z,13.62
2023-03-21T06:30:18.525Z,14.14
2023-03-21T06:33:26.483Z,14.19
2023-03-21T06:36:16.457Z,14.94
2023-03-21T06:39:09.046Z,15.36
2023-03-21T06:42:01.429Z,14.67
2023-03-21T06:44:50.053Z,14.81
2023-03-21T06:47:37.770Z,15.49
2023-03-21T06:50:30.628Z,16.02
2023-03-21T06:53:21.300Z,16.29
2023-03-21T06:56:38.268Z,16.22
2023-03-21T06:59:26.438Z,16.57
2023-03-21T07:02:22.671Z,16.58
2023-03-21T07:05:29.171Z,16.24
2023-03-21T07:08:17.800Z,16.58
2023-03-21T07:11:06.764Z,16.68
2023-03-21T07:13:55.112Z,16.45
2023-03-21T07:16:44.137Z,17.04
2023-03-21T07:19:33.850Z,17.16
2023-03-21T07:22:21.589Z,17.08
2023-03-21T07:25:10.806Z,16.66
2023-03-21T07:28:01.380Z,17.00
2023-03-21T07:30:58.469Z,16.13
2023-03-21T07:33:46.560Z,15.66
2023-03-21T07:36:34.412Z,16.02
2023-03-21T07:39:23.865Z,16.53
2023-03-21T07:42:13.188Z,16.96
2023-03-21T07:45:01.085Z,16.99
2023-03-21T07:47:54.047Z,17.04
2023-03-21T07:50:41.992Z,17.30
2023-03-21T07:53:29.805Z,17.04
2023-03-21T07:56:17.635Z,16.67
2023-03-21T07:59:05.870Z,16.49
2023-03-21T08:01:53.593Z,16.39
2023-03-21T08:04:41.233Z,16.52
2023-03-21T08:07:28.867Z,16.73
2023-03-21T08:10:17.777Z,16.56
2023-03-21T08:13:06.662Z,16.85
2023-03-21T08:15:54.279Z,16.48
2023-03-21T08:18:42.980Z,16.83
2023-03-21T08:21:30.566Z,16.74
2023-03-21T08:24:18.239Z,16.50
2023-03-21T08:27:06.158Z,16.44
2023-03-21T08:29:54.050Z,16.46
2023-03-21T08:32:42.489Z,16.49
2023-03-21T08:35:31.838Z,16.29
2023-03-21T08:38:19.473Z,16.11
2023-03-21T08:41:07.464Z,16.25
2023-03-21T08:43:58.786Z,16.52
2023-03-21T08:46:46.496Z,16.46
2023-03-21T08:49:36.236Z,16.43
2023-03-21T08:52:23.875Z,16.46
2023-03-21T08:55:13.109Z,16.39
2023-03-21T08:58:01.234Z,16.49
2023-03-21T09:00:48.812Z,16.52
2023-03-21T09:03:36.435Z,16.45
2023-03-21T09:06:25.059Z,16.60
2023-03-21T09:09:12.981Z,16.46
2023-03-21T09:12:01.174Z,16.42
2023-03-21T09:14:49.038Z,16.51
2023-03-21T09:17:36.805Z,16.83
2023-03-21T09:20:31.358Z,16.90
2023-03-21T09:23:22.780Z,16.94
2023-03-21T09:26:10.989Z,16.76
2023-03-21T09:28:59.208Z,17.10
2023-03-21T09:31:47.633Z,17.14
2023-03-21T09:34:37.226Z,16.81
2023-03-21T09:37:24.994Z,16.84
2023-03-21T09:40:20.849Z,16.84
2023-03-21T09:43:24.042Z,16.78
2023-03-21T09:46:26.076Z,17.00
2023-03-21T09:49:31.492Z,16.85
2023-03-21T09:52:34.624Z,16.62
2023-03-21T09:55:37.983Z,16.60
2023-03-21T09:58:46.549Z,16.53
2023-03-21T10:01:42.181Z,16.45
2023-03-21T10:04:33.285Z,16.77
2023-03-21T10:07:21.332Z,17.41
2023-03-21T10:10:19.306Z,18.26
2023-03-21T10:13:17.642Z,18.21
2023-03-21T10:16:32.618Z,18.46
2023-03-21T10:19:23.698Z,18.23
2023-03-21T10:22:11.550Z,18.21
2023-03-21T10:24:59.219Z,17.73
2023-03-21T10:27:48.399Z,18.15
2023-03-21T10:30:43.769Z,18.22
2023-03-21T10:33:37.452Z,18.15
2023-03-21T10:36:31.830Z,17.43
2023-03-21T10:39:19.392Z,17.86
2023-03-21T10:42:10.907Z,18.05
2023-03-21T10:44:58.825Z,18.26
2023-03-21T10:47:50.743Z,18.41
2023-03-21T10:50:38.339Z,18.44
2023-03-21T10:53:33.586Z,18.24
2023-03-21T10:56:28.093Z,17.77
2023-03-21T10:59:20.994Z,18.05
2023-03-21T11:02:19.827Z,17.90
2023-03-21T11:05:20.760Z,18.28
2023-03-21T11:08:15.324Z,18.08
2023-03-21T11:11:10.198Z,18.19
2023-03-21T11:14:07.618Z,17.33
2023-03-21T11:16:58.477Z,17.51
2023-03-21T11:20:00.277Z,17.47
2023-03-21T11:22:49.775Z,17.61
2023-03-21T11:25:41.750Z,17.50
2023-03-21T11:28:49.600Z,17.60
2023-03-21T11:31:41.775Z,18.71
2023-03-21T11:34:51.373Z,18.95
2023-03-21T11:37:46.614Z,18.81
2023-03-21T11:40:36.555Z,19.11
2023-03-21T11:43:32.212Z,19.51
2023-03-21T11:46:32.137Z,19.41
2023-03-21T11:49:21.447Z,19.23
2023-03-21T11:52:13.586Z,19.42
2023-03-21T11:55:16.894Z,19.76
2023-03-21T11:58:23.247Z,19.70
2023-03-21T12:01:22.446Z,19.00
2023-03-21T12:04:33.359Z,19.00
2023-03-21T12:07:23.999Z,19.25
2023-03-21T12:10:20.853Z,18.61
2023-03-21T12:13:36.140Z,18.74
2023-03-21T12:16:54.274Z,18.82
2023-03-21T12:20:10.566Z,18.97
2023-03-21T12:23:17.176Z,19.59
2023-03-21T12:26:27.952Z,19.41
2023-03-21T12:29:40.449Z,19.56
2023-03-21T12:32:49.967Z,20.21
2023-03-21T12:36:18.688Z,19.85
2023-03-21T12:39:30.710Z,19.61
2023-03-21T12:42:34.865Z,20.15
2023-03-21T12:45:34.187Z,20.06
2023-03-21T12:48:33.885Z,19.50
2023-03-21T12:51:29.607Z,20.04
2023-03-21T12:54:38.352Z,20.15
2023-03-21T12:57:35.737Z,20.42
2023-03-21T13:00:38.541Z,19.99
2023-03-21T13:03:44.034Z,20.40
2023-03-21T13:06:32.089Z,20.18
2023-03-21T13:09:37.391Z,20.03
2023-03-21T13:12:44.443Z,19.89
2023-03-21T13:15:38.128Z,20.29
2023-03-21T13:18:50.337Z,20.18
2023-03-21T13:21:46.599Z,20.13
2023-03-21T13:24:49.539Z,20.00
2023-03-21T13:27:41.943Z,19.91
2023-03-21T13:30:32.730Z,19.48
2023-03-21T13:33:30.026Z,19.18
2023-03-21T13:36:24.763Z,18.91
2023-03-21T13:39:44.513Z,18.52
2023-03-21T13:42:34.349Z,18.75
2023-03-21T13:45:32.746Z,18.33
2023-03-21T13:48:57.990Z,18.23
2023-03-21T13:51:58.711Z,18.11
2023-03-21T13:54:55.376Z,17.88
2023-03-21T13:57:47.679Z,18.05
2023-03-21T14:00:40.014Z,18.05
2023-03-21T14:03:34.098Z,17.90
2023-03-21T14:06:21.942Z,17.77
2023-03-21T14:09:15.851Z,17.61
2023-03-21T14:12:08.179Z,17.66
2023-03-21T14:15:28.060Z,17.58
2023-03-21T14:18:27.994Z,17.53
2023-03-21T14:21:30.566Z,17.39
2023-03-21T14:24:20.174Z,17.41
2023-03-21T14:27:12.031Z,17.09
2023-03-21T14:30:01.296Z,17.05
2023-03-21T14:32:54.401Z,16.97
2023-03-21T14:35:46.307Z,17.11
2023-03-21T14:38:37.108Z,16.99
2023-03-21T14:41:31.114Z,16.91
2023-03-21T14:44:28.125Z,16.85
2023-03-21T14:47:27.334Z,16.69
2023-03-21T14:50:15.136Z,16.92
2023-03-21T14:53:03.017Z,16.65
2023-03-21T14:56:23.085Z,16.64
2023-03-21T14:59:14.830Z,16.92
2023-03-21T15:02:18.387Z,16.52
2023-03-21T15:05:19.018Z,16.54
2023-03-21T15:08:17.191Z,16.57
2023-03-21T15:11:08.564Z,16.53
2023-03-21T15:13:57.139Z,16.59
2023-03-21T15:16:45.089Z,16.53
2023-03-21T15:19:38.301Z,16.26
2023-03-21T15:22:38.597Z,16.16
2023-03-21T15:25:31.142Z,16.04
2023-03-21T15:28:19.244Z,16.32
2023-03-21T15:31:16.461Z,16.14
2023-03-21T15:34:07.287Z,16.23
2023-03-21T15:37:08.433Z,15.80
2023-03-21T15:40:15.965Z,15.62
2023-03-21T15:43:19.012Z,15.83
2023-03-21T15:46:18.349Z,15.73
2023-03-21T15:49:08.998Z,15.62
2023-03-21T15:51:59.652Z,15.45
2023-03-21T15:54:56.984Z,15.53
2023-03-21T15:57:47.755Z,15.50
2023-03-21T16:00:44.739Z,15.30
2023-03-21T16:03:40.750Z,15.08
2023-03-21T16:06:34.279Z,15.03
2023-03-21T16:09:24.917Z,15.06
2023-03-21T16:12:17.012Z,14.99
2023-03-21T16:15:07.290Z,14.90
2023-03-21T16:18:01.201Z,14.81
2023-03-21T16:20:50.423Z,14.72
2023-03-21T16:23:38.140Z,14.67
2023-03-21T16:26:32.302Z,14.68
2023-03-21T16:29:20.193Z,14.63
2023-03-21T16:32:15.753Z,14.38
2023-03-21T16:35:04.406Z,14.37
2023-03-21T16:37:52.115Z,14.31
2023-03-21T16:40:42.268Z,14.23
2023-03-21T16:43:30.281Z,14.08
2023-03-21T16:46:23.871Z,14.17
2023-03-21T16:49:26.994Z,14.12
2023-03-21T16:52:15.316Z,13.92
2023-03-21T16:55:03.171Z,13.88
2023-03-21T16:57:54.873Z,14.01
2023-03-21T17:00:42.716Z,13.92
2023-03-21T17:03:30.482Z,13.89
2023-03-21T17:06:23.558Z,13.86
2023-03-21T17:09:13.918Z,13.82
2023-03-21T17:12:01.778Z,13.79
2023-03-21T17:14:49.729Z,13.67
2023-03-21T17:17:40.632Z,13.69
2023-03-21T17:20:34.736Z,13.75
2023-03-21T17:23:22.639Z,13.59
2023-03-21T17:26:18.459Z,13.50
2023-03-21T17:29:06.606Z,13.39
2023-03-21T17:31:54.474Z,13.58
2023-03-21T17:34:42.276Z,13.54
2023-03-21T17:37:32.592Z,13.39
2023-03-21T17:40:27.431Z,13.47
2023-03-21T17:43:18.523Z,13.24
2023-03-21T17:46:06.294Z,13.39
2023-03-21T17:48:54.236Z,13.31
2023-03-21T17:51:43.448Z,13.31
2023-03-21T17:54:32.298Z,13.26
2023-03-21T17:57:22.734Z,13.16
2023-03-21T18:00:23.145Z,13.03
2023-03-21T18:03:10.904Z,12.90
2023-03-21T18:05:59.854Z,12.86
2023-03-21T18:08:52.984Z,12.90
2023-03-21T18:11:41.469Z,12.92
2023-03-21T18:14:30.745Z,12.96
2023-03-21T18:17:21.602Z,12.99
2023-03-21T18:20:17.197Z,12.95
2023-03-21T18:23:05.135Z,12.83
2023-03-21T18:25:53.323Z,12.81
2023-03-21T18:28:41.747Z,12.73
2023-03-21T18:31:42.735Z,12.78
2023-03-21T18:34:35.132Z,12.83
2023-03-21T18:37:23.101Z,12.82
2023-03-21T18:40:14.685Z,12.79
2023-03-21T18:46:14.008Z,12.69
2023-03-21T18:49:33.545Z,12.64
2023-03-21T18:52:13.554Z,12.51
2023-03-21T18:55:01.354Z,12.48
2023-03-21T18:57:49.084Z,12.53
2023-03-21T19:00:37.586Z,12.53
2023-03-21T19:03:35.705Z,12.47
2023-03-21T19:06:28.423Z,12.42
2023-03-21T19:09:18.182Z,11.97
2023-03-21T19:12:06.728Z,12.44
2023-03-21T19:14:55.881Z,12.42
2023-03-21T19:20:55.898Z,12.39
2023-03-21T19:26:54.698Z,12.32
2023-03-21T19:29:42.755Z,12.22
2023-03-21T19:32:31.072Z,12.27
2023-03-21T19:35:20.376Z,12.22
2023-03-21T19:38:08.338Z,12.30
2023-03-21T19:41:01.155Z,12.17
2023-03-21T19:43:55.106Z,12.06
2023-03-21T19:46:44.310Z,12.17
2023-03-21T19:50:04.666Z,12.12
2023-03-21T19:52:39.916Z,11.98
2023-03-21T19:55:27.974Z,11.99
2023-03-21T19:58:22.682Z,11.98
2023-03-21T20:01:11.754Z,11.89
2023-03-21T20:03:59.993Z,11.87
2023-03-21T20:06:47.801Z,12.01
2023-03-21T20:09:51.149Z,11.83
2023-03-21T20:12:40.031Z,11.99
2023-03-21T20:15:29.911Z,11.87
2023-03-21T20:18:30.464Z,11.85
2023-03-21T20:21:25.426Z,11.86
2023-03-21T20:24:13.939Z,11.71
2023-03-21T20:27:01.660Z,11.75
2023-03-21T20:30:09.174Z,11.72
2023-03-21T20:32:57.767Z,11.49
2023-03-21T20:36:19.786Z,11.49
2023-03-21T20:38:42.571Z,11.28
2023-03-21T20:41:30.549Z,11.42
2023-03-21T20:44:56.001Z,11.47
2023-03-21T20:47:27.960Z,11.39
2023-03-21T20:50:16.088Z,11.36
2023-03-21T20:53:07.316Z,11.24
2023-03-21T20:55:55.336Z,11.39
2023-03-21T20:59:01.953Z,11.24
2023-03-21T21:01:51.494Z,11.29
2023-03-21T21:05:08.150Z,11.19
2023-03-21T21:07:49.300Z,11.27
2023-03-21T21:11:02.714Z,11.25
2023-03-21T21:13:47.146Z,11.30
2023-03-21T21:16:35.134Z,11.09
2023-03-21T21:19:22.818Z,11.17
2023-03-21T21:22:10.612Z,11.04
2023-03-21T21:24:58.312Z,10.68
2023-03-21T21:27:46.563Z,10.85
2023-03-21T21:30:38.359Z,10.61
2023-03-21T21:33:29.337Z,10.82
2023-03-21T21:36:17.212Z,10.77
2023-03-21T21:39:06.287Z,10.76
2023-03-21T21:41:54.529Z,10.75
2023-03-21T21:44:45.115Z,10.71
2023-03-21T21:47:32.839Z,10.74
2023-03-21T21:50:22.373Z,10.68
2023-03-21T21:53:11.977Z,10.74
2023-03-21T21:56:03.691Z,10.56
2023-03-21T21:58:53.462Z,10.72
2023-03-21T22:01:42.539Z,10.78
2023-03-21T22:04:30.458Z,10.61
2023-03-21T22:07:21.416Z,10.46
2023-03-21T22:10:09.455Z,10.62
2023-03-21T22:12:57.199Z,10.73
2023-03-21T22:15:55.496Z,10.68
2023-03-21T22:18:43.437Z,10.75
2023-03-21T22:21:31.307Z,10.59
2023-03-21T22:24:18.975Z,10.73
2023-03-21T22:27:06.720Z,10.70
2023-03-21T22:29:56.983Z,10.75
2023-03-21T22:32:56.384Z,10.73
2023-03-21T22:35:51.925Z,10.69
2023-03-21T22:38:42.189Z,10.66
2023-03-21T22:41:32.382Z,10.71
2023-03-21T22:44:23.050Z,10.89
2023-03-21T22:47:11.313Z,10.82
2023-03-21T22:50:06.178Z,10.73
2023-03-21T22:53:29.678Z,10.85
2023-03-21T22:56:17.703Z,10.87
2023-03-21T22:59:05.468Z,10.63
2023-03-21T23:01:53.411Z,10.76
2023-03-21T23:04:43.569Z,10.61
2023-03-21T23:07:31.272Z,10.85
2023-03-21T23:10:19.368Z,10.82
2023-03-21T23:13:07.449Z,10.73
2023-03-21T23:15:55.312Z,10.54
2023-03-21T23:18:43.924Z,10.74
2023-03-21T23:21:34.382Z,10.65
2023-03-21T23:24:24.578Z,10.44
2023-03-21T23:27:22.108Z,10.71
2023-03-21T23:30:19.714Z,10.50
2023-03-21T23:33:07.871Z,10.66
2023-03-21T23:35:55.971Z,10.62
2023-03-21T23:38:44.768Z,10.75
2023-03-21T23:41:32.556Z,10.76
2023-03-21T23:44:20.377Z,10.80
2023-03-21T23:47:08.514Z,10.52
2023-03-21T23:49:56.295Z,10.63
2023-03-21T23:52:44.959Z,10.64
2023-03-21T23:55:38.124Z,10.64
2023-03-21T23:58:28.631Z,10.62
